Time;durP1;ratioP1;P1;durP2;ratioP2;P2;SDS_P1;SDS_P2;PMS_P1;PMS_P2;Temp;Humidity;BMP_temperature;BMP_pressure;BME280_temperature;BME280_humidity;BME280_pressure;Samples;Min_cycle;Max_cycle;Signal;HPM_P1;HPM_P2
2022/02/11 00:01:34;;;;;;;6.25;4.53;;;;;;;8.71;83.50;100499.20;2893260;81;21099;-71
2022/02/11 00:09:21;;;;;;;4.58;3.90;;;;;;;8.54;84.09;100500.86;2851240;82;21015;-71
2022/02/11 00:13:22;;;;;;;5.00;3.70;;;;;;;8.55;84.23;100498.11;2859399;82;21024;-70
2022/02/11 00:17:24;;;;;;;5.28;3.45;;;;;;;8.54;84.01;100495.55;2851647;82;21079;-70
2022/02/11 00:21:28;;;;;;;6.05;4.78;;;;;;;8.51;84.04;100489.98;2845400;83;21035;-71
2022/02/11 00:25:31;;;;;;;6.28;4.12;;;;;;;8.55;83.99;100491.95;2859569;82;20980;-70
2022/02/11 00:33:52;;;;;;;8.03;4.83;;;;;;;8.57;83.86;100482.08;2846267;83;20960;-71
2022/02/11 00:37:52;;;;;;;4.67;3.33;;;;;;;8.55;83.89;100467.63;2886706;82;20980;-70
2022/02/11 01:03:13;;;;;;;4.60;3.85;;;;;;;8.46;84.28;100465.57;2846987;83;20999;-72
2022/02/11 01:07:09;;;;;;;5.95;4.22;;;;;;;8.44;84.62;100474.94;2846823;83;21051;-70
2022/02/11 01:11:16;;;;;;;7.65;4.65;;;;;;;8.39;84.93;100485.03;2847135;83;21019;-72
2022/02/11 01:15:14;;;;;;;8.83;4.45;;;;;;;8.39;85.23;100489.50;2847030;83;21003;-72
2022/02/11 01:19:29;;;;;;;8.28;5.50;;;;;;;8.35;85.67;100493.29;2847231;83;21039;-71
2022/02/11 01:24:06;;;;;;;;;;;;;;;8.32;85.92;100491.72;2849679;83;21047;-71
2022/02/11 01:27:40;;;;;;;21.85;8.43;;;;;;;8.22;86.63;100490.64;2833123;83;20109;-71
2022/02/11 01:40:34;;;;;;;11.38;6.15;;;;;;;8.00;88.13;100489.00;2896278;82;21008;-71
2022/02/11 02:09:26;;;;;;;3.30;3.00;;;;;;;7.79;87.38;100454.70;2900879;82;21019;-70
2022/02/11 02:13:23;;;;;;;5.62;4.10;;;;;;;7.80;87.48;100454.58;2898091;82;21024;-70
2022/02/11 04:20:43;;;;;;;;;;;;;;;7.93;86.47;100352.61;2899378;81;21049;-73
2022/02/11 05:02:26;;;;;;;;;;;;;;;7.92;86.93;100341.65;2887597;82;20113;-72
2022/02/11 05:06:26;;;;;;;;;;;;;;;8.07;86.83;100340.21;2891712;82;20115;-72
2022/02/11 05:10:27;;;;;;;;;;;;;;;8.04;85.81;100343.08;2854517;83;20113;-72
2022/02/11 05:14:28;;;;;;;;;;;;;;;7.69;86.60;100348.07;2863711;82;20132;-72
2022/02/11 05:18:29;;;;;;;;;;;;;;;7.40;87.78;100348.28;2875112;82;20120;-72
2022/02/11 05:22:31;;;;;;;;;;;;;;;7.23;87.77;100346.75;2854608;83;20157;-73
2022/02/11 05:26:32;;;;;;;;;;;;;;;6.84;88.47;100352.40;2894270;82;20099;-72
2022/02/11 05:30:36;;;;;;;;;;;;;;;6.69;86.88;100351.61;2903407;82;20095;-72
2022/02/11 05:34:37;;;;;;;;;;;;;;;6.54;87.75;100350.80;2903455;82;20142;-71
2022/02/11 05:38:38;;;;;;;;;;;;;;;6.50;88.48;100346.67;2903671;82;20106;-73
2022/02/11 05:42:40;;;;;;;;;;;;;;;6.18;86.19;100345.09;2902973;82;20148;-73
2022/02/11 05:46:41;;;;;;;;;;;;;;;6.31;88.03;100346.97;2878091;82;20086;-72
2022/02/11 05:50:43;;;;;;;;;;;;;;;6.29;88.24;100346.59;2879438;81;20104;-72
2022/02/11 05:54:44;;;;;;;;;;;;;;;6.08;87.58;100352.73;2911701;80;20110;-73
2022/02/11 05:58:46;;;;;;;;;;;;;;;6.11;88.74;100355.67;2873219;81;20160;-72
2022/02/11 06:02:47;;;;;;;;;;;;;;;6.17;89.28;100350.48;2865613;81;20148;-72
2022/02/11 06:06:48;;;;;;;;;;;;;;;6.17;89.41;100358.41;2852206;83;20117;-73
2022/02/11 06:10:50;;;;;;;;;;;;;;;6.10;88.25;100365.41;2853173;83;20168;-73
2022/02/11 06:14:52;;;;;;;;;;;;;;;6.09;87.79;100365.48;2853836;83;20151;-73
2022/02/11 06:18:54;;;;;;;;;;;;;;;6.02;87.51;100370.29;2887814;81;20502;-73
2022/02/11 06:22:56;;;;;;;;;;;;;;;5.99;88.71;100369.13;2882026;81;20143;-71
2022/02/11 06:26:58;;;;;;;;;;;;;;;5.98;88.81;100368.76;2931977;80;20131;-71
2022/02/11 06:30:59;;;;;;;;;;;;;;;5.90;89.92;100373.67;2883253;81;20089;-72
2022/02/11 06:35:01;;;;;;;;;;;;;;;5.92;89.46;100383.66;2856584;82;20136;-71
2022/02/11 06:39:03;;;;;;;;;;;;;;;5.94;89.99;100389.70;2924752;81;20119;-72
2022/02/11 06:43:06;;;;;;;;;;;;;;;5.85;88.83;100393.25;2868012;81;20164;-71
2022/02/11 06:47:07;;;;;;;;;;;;;;;5.77;88.11;100399.48;2849737;83;20402;-73
2022/02/11 06:51:08;;;;;;;;;;;;;;;5.79;89.61;100396.27;2849601;83;20136;-73
2022/02/11 06:55:10;;;;;;;;;;;;;;;5.76;90.04;100394.28;2848171;83;20085;-75
2022/02/11 06:59:11;;;;;;;;;;;;;;;5.69;90.41;100401.71;2853556;82;20107;-78
2022/02/11 07:03:13;;;;;;;;;;;;;;;5.56;90.26;100400.27;2880972;82;20477;-76
2022/02/11 07:07:14;;;;;;;;;;;;;;;5.49;90.70;100394.98;2875229;80;20301;-77
2022/02/11 07:11:17;;;;;;;;;;;;;;;5.39;91.64;100396.00;2877608;81;20143;-77
2022/02/11 07:15:19;;;;;;;;;;;;;;;5.29;91.56;100404.92;2876037;80;20446;-78
2022/02/11 07:19:21;;;;;;;;;;;;;;;5.18;91.66;100408.17;2934681;80;20395;-79
2022/02/11 07:23:22;;;;;;;;;;;;;;;5.08;92.12;100417.53;2864885;82;20166;-83
2022/02/11 07:27:24;;;;;;;;;;;;;;;5.03;93.00;100420.91;2835512;83;20109;-81
2022/02/11 07:31:26;;;;;;;;;;;;;;;4.91;93.03;100421.97;2849380;83;20202;-77
2022/02/11 07:35:29;;;;;;;;;;;;;;;4.87;93.61;100430.98;2858645;83;20111;-77
2022/02/11 07:39:31;;;;;;;;;;;;;;;4.80;94.12;100437.55;2860154;82;20187;-74
2022/02/11 07:43:32;;;;;;;;;;;;;;;4.78;94.62;100443.38;2870612;82;20130;-75
2022/02/11 07:47:33;;;;;;;;;;;;;;;4.65;94.67;100450.63;2884433;81;20100;-75
2022/02/11 07:51:35;;;;;;;;;;;;;;;4.54;93.95;100448.58;2822265;84;20120;-74
2022/02/11 07:55:36;;;;;;;;;;;;;;;4.50;94.34;100446.18;2840113;83;20110;-76
2022/02/11 07:59:37;;;;;;;;;;;;;;;4.53;94.58;100454.78;2871363;83;20124;-75
2022/02/11 08:03:38;;;;;;;;;;;;;;;4.40;93.92;100459.86;2817757;82;20161;-75
2022/02/11 08:07:43;;;;;;;;;;;;;;;4.21;93.90;100467.03;2851670;82;20105;-70
2022/02/11 08:11:43;;;;;;;;;;;;;;;4.23;94.71;100469.98;2850699;82;20129;-70
2022/02/11 08:15:44;;;;;;;;;;;;;;;4.27;95.67;100481.18;2849421;83;20118;-70
2022/02/11 08:19:46;;;;;;;;;;;;;;;4.15;94.23;100478.73;2848506;83;20177;-70
2022/02/11 08:23:48;;;;;;;;;;;;;;;4.06;94.31;100473.47;2849184;82;20093;-71
2022/02/11 08:27:51;;;;;;;;;;;;;;;3.88;93.51;100479.23;2848455;82;20137;-71
2022/02/11 08:31:55;;;;;;;;;;;;;;;3.93;94.42;100493.45;2861709;82;20150;-70
2022/02/11 08:35:58;;;;;;;;;;;;;;;3.78;94.20;100498.58;2898640;81;20419;-70
2022/02/11 08:40:00;;;;;;;;;;;;;;;3.67;94.41;100508.32;2899151;81;20095;-70
2022/02/11 08:44:03;;;;;;;;;;;;;;;3.51;95.12;100506.05;2898366;82;20154;-70
2022/02/11 08:48:05;;;;;;;;;;;;;;;3.52;95.78;100500.70;2888643;80;20122;-70
2022/02/11 08:52:08;;;;;;;;;;;;;;;3.41;95.52;100510.42;2897213;81;20149;-70
2022/02/11 08:56:11;;;;;;;;;;;;;;;3.35;96.20;100516.47;2861697;81;20193;-71
2022/02/11 09:00:16;;;;;;;;;;;;;;;3.28;95.53;100520.69;2864664;82;20154;-72
2022/02/11 09:04:18;;;;;;;;;;;;;;;3.40;96.59;100528.45;2863994;82;20154;-71
2022/02/11 09:08:22;;;;;;;;;;;;;;;3.48;97.09;100529.40;2848832;82;20411;-72
2022/02/11 09:12:24;;;;;;;;;;;;;;;3.65;97.31;100523.33;2876927;82;20152;-72
2022/02/11 09:16:26;;;;;;;;;;;;;;;3.74;96.82;100531.69;2886213;81;20427;-72
2022/02/11 09:20:28;;;;;;;;;;;;;;;3.79;96.79;100538.88;2872907;82;20160;-73
2022/02/11 09:24:30;;;;;;;;;;;;;;;3.82;96.83;100547.48;2851724;83;20165;-72
2022/02/11 09:28:32;;;;;;;;;;;;;;;3.99;97.95;100553.22;2878768;82;20110;-72
2022/02/11 09:32:34;;;;;;;;;;;;;;;4.13;97.85;100551.23;2915229;81;20095;-73
2022/02/11 09:36:39;;;;;;;;;;;;;;;4.03;96.52;100566.22;2910402;81;20085;-73
2022/02/11 09:40:44;;;;;;;;;;;;;;;3.93;96.76;100563.20;2867311;82;20087;-73
2022/02/11 09:44:43;;;;;;;;;;;;;;;3.96;97.60;100551.22;2897050;82;20150;-74
2022/02/11 09:48:45;;;;;;;;;;;;;;;3.94;97.97;100558.34;2866919;81;20097;-74
2022/02/11 09:52:54;;;;;;;;;;;;;;;4.04;99.05;100566.16;2886979;82;20145;-80
2022/02/11 09:56:58;;;;;;;;;;;;;;;4.03;98.00;100582.02;2884713;82;20132;-77
2022/02/11 10:00:59;;;;;;;;;;;;;;;4.11;98.81;100591.23;2884509;81;20148;-76
2022/02/11 10:05:05;;;;;;;;;;;;;;;4.26;98.63;100600.17;2904265;82;20094;-77
2022/02/11 10:09:04;;;;;;;;;;;;;;;4.10;97.21;100609.77;2877654;82;20177;-77
2022/02/11 10:13:07;;;;;;;;;;;;;;;4.15;97.58;100620.91;2901694;82;20102;-82
2022/02/11 10:17:11;;;;;;;;;;;;;;;4.08;98.37;100620.36;2855035;82;20130;-81
2022/02/11 10:21:20;;;;;;;;;;;;;;;3.97;98.31;100627.95;2880341;82;20136;-83
2022/02/11 10:25:17;;;;;;;;;;;;;;;3.81;98.36;100651.50;2900622;82;20122;-82
2022/02/11 10:29:18;;;;;;;;;;;;;;;3.95;100.00;100650.86;2869232;81;20151;-79
2022/02/11 10:33:24;;;;;;;;;;;;;;;3.96;99.73;100652.09;2886173;81;20098;-81
2022/02/11 10:37:23;;;;;;;;;;;;;;;4.03;100.00;100656.59;2873991;81;20132;-77
2022/02/11 10:41:25;;;;;;;;;;;;;;;3.91;99.23;100667.70;2883382;82;20144;-80
2022/02/11 10:45:37;;;;;;;;;;;;;;;3.94;100.00;100667.58;2901837;82;20141;-85
2022/02/11 10:49:40;;;;;;;;;;;;;;;3.97;100.00;100660.37;2892819;81;20124;-76
2022/02/11 10:53:42;;;;;;;;;;;;;;;3.82;98.77;100680.39;2854590;83;20144;-79
2022/02/11 10:57:47;;;;;;;;;;;;;;;3.77;99.29;100678.44;2854574;83;20159;-79
2022/02/11 11:01:49;;;;;;;;;;;;;;;3.66;99.11;100697.81;2872008;81;20123;-78
2022/02/11 11:05:50;;;;;;;;;;;;;;;3.71;99.90;100701.08;2913170;81;20131;-78
2022/02/11 11:09:56;;;;;;;;;;;;;;;3.63;99.03;100704.06;2899554;82;20099;-78
2022/02/11 11:13:57;;;;;;;;;;;;;;;3.64;99.35;100707.56;2885599;82;20141;-78
2022/02/11 11:18:03;;;;;;;;;;;;;;;3.55;99.85;100708.39;2874775;82;20237;-76
2022/02/11 11:22:14;;;;;;;;;;;;;;;3.62;100.00;100704.15;2850538;83;20159;-78
2022/02/11 11:26:15;;;;;;;;;;;;;;;3.66;100.00;100714.92;2848833;83;20121;-77
2022/02/11 11:30:32;;;;;;;;;;;;;;;3.78;100.00;100710.41;2871553;80;20116;-77
2022/02/11 11:34:35;;;;;;;;;;;;;;;3.76;100.00;100712.27;2849507;82;20127;-76
2022/02/11 11:38:38;;;;;;;;;;;;;;;3.67;99.99;100708.73;2874673;82;20099;-78
2022/02/11 11:42:40;;;;;;;;;;;;;;;3.77;99.92;100722.31;2871427;82;20105;-78
2022/02/11 11:46:52;;;;;;;;;;;;;;;4.05;100.00;100714.45;2873763;80;20165;-79
2022/02/11 11:50:57;;;;;;;;;;;;;;;4.09;100.00;100718.64;2887375;82;20325;-77
2022/02/11 11:55:14;;;;;;;;;;;;;;;4.21;100.00;100731.67;2872439;82;20134;-76
2022/02/11 11:59:32;;;;;;;;;;;;;;;4.28;100.00;100732.63;2867059;82;28408;-82
2022/02/11 12:03:36;;;;;;;;;;;;;;;4.26;99.43;100730.53;2916635;81;20471;-80
2022/02/11 12:07:37;;;;;;;;;;;;;;;4.25;99.67;100726.64;2924118;81;20116;-80
2022/02/11 12:11:39;;;;;;;;;;;;;;;4.20;97.85;100729.97;2923987;81;20127;-81
2022/02/11 12:15:40;;;;;;;;;;;;;;;4.10;97.61;100735.66;2923701;81;20119;-82
2022/02/11 12:19:46;;;;;;;;;;;;;;;4.14;98.21;100735.06;2907915;81;20134;-81
2022/02/11 12:28:03;;;;;;;;;;;;;;;4.37;99.25;100748.45;2892576;82;20521;-82
2022/02/11 12:32:05;;;;;;;;;;;;;;;4.46;98.39;100752.86;2899476;82;20478;-78
2022/02/11 12:36:12;;;;;;;;;;;;;;;4.46;97.94;100737.06;2885610;81;20111;-79
2022/02/11 12:40:25;;;;;;;;;;;;;;;4.48;98.04;100747.05;2883469;82;20264;-77
2022/02/11 12:44:32;;;;;;;;;;;;;;;4.41;96.78;100756.58;2891024;82;20427;-80
2022/02/11 12:48:33;;;;;;;;;;;;;;;4.46;98.41;100750.23;2901971;82;20170;-78
2022/02/11 12:52:36;;;;;;;;;;;;;;;4.45;95.50;100772.23;2902975;82;20141;-79
2022/02/11 12:56:37;;;;;;;;;;;;;;;4.46;94.80;100766.03;2902786;82;20103;-79
2022/02/11 13:00:41;;;;;;;;;;;;;;;4.38;93.73;100778.27;2902555;81;20133;-78
2022/02/11 13:04:42;;;;;;;;;;;;;;;4.35;93.67;100783.23;2850121;82;20093;-78
2022/02/11 13:08:44;;;;;;;;;;;;;;;4.51;94.52;100785.10;2847888;83;20433;-77
2022/02/11 13:12:46;;;;;;;;;;;;;;;4.64;94.32;100784.91;2907244;81;20112;-77
2022/02/11 13:16:47;;;;;;;;;;;;;;;4.65;90.83;100793.67;2931637;81;20092;-75
2022/02/11 13:20:51;;;;;;;;;;;;;;;4.76;91.30;100795.78;2932001;81;20123;-76
2022/02/11 13:24:52;;;;;;;;;;;;;;;4.86;90.18;100791.30;2906618;80;20169;-77
2022/02/11 13:28:55;;;;;;;;;;;;;;;4.97;90.51;100792.08;2896754;82;20153;-73
2022/02/11 13:32:59;;;;;;;;;;;;;;;5.10;90.53;100808.58;2871814;82;20394;-74
2022/02/11 13:37:05;;;;;;;;;;;;;;;5.36;92.13;100811.20;2864087;82;20135;-74
2022/02/11 13:41:09;;;;;;;;;;;;;;;5.38;87.86;100817.25;2875576;82;20467;-78
2022/02/11 13:45:12;;;;;;;;;;;;;;;5.35;87.15;100823.17;2876086;82;20163;-78
2022/02/11 13:49:13;;;;;;;;;;;;;;;5.49;88.49;100821.97;2876527;82;20375;-79
2022/02/11 13:53:18;;;;;;;;;;;;;;;5.71;88.21;100824.83;2877476;82;20174;-80
2022/02/11 13:57:23;;;;;;;;;;;;;;;5.75;85.39;100836.06;2874572;82;20186;-78
2022/02/11 14:01:27;;;;;;;;;;;;;;;5.78;84.95;100842.05;2875921;82;20117;-78
2022/02/11 14:05:29;;;;;;;;;;;;;;;5.60;82.61;100837.73;2875344;82;20176;-79
2022/02/11 14:09:40;;;;;;;;;;;;;;;5.48;83.42;100854.57;2874953;82;20128;-80
2022/02/11 14:13:43;;;;;;;;;;;;;;;5.36;83.99;100860.02;2872907;82;20140;-74
2022/02/11 14:17:44;;;;;;;;;;;;;;;5.45;85.06;100867.92;2873127;82;20171;-75
2022/02/11 14:21:45;;;;;;;;;;;;;;;5.49;85.76;100864.67;2872767;82;20429;-79
2022/02/11 14:25:47;;;;;;;;;;;;;;;5.49;85.82;100861.55;2873886;82;20144;-76
2022/02/11 14:29:49;;;;;;;;;;;;;;;5.55;86.00;100874.45;2874739;82;20456;-75
2022/02/11 14:33:50;;;;;;;;;;;;;;;5.64;86.57;100873.12;2892946;81;20118;-77
2022/02/11 14:37:51;;;;;;;;;;;;;;;5.73;85.92;100865.20;2892987;80;20117;-75
2022/02/11 14:41:55;;;;;;;;;;;;;;;5.75;85.23;100869.93;2871673;82;20116;-73
2022/02/11 14:45:56;;;;;;;;;;;;;;;5.85;85.33;100869.81;2850771;82;20136;-73
2022/02/11 14:49:58;;;;;;;;;;;;;;;5.95;85.45;100870.66;2863943;82;20120;-73
2022/02/11 14:54:03;;;;;;;;;;;;;;;5.98;85.16;100880.58;2847582;83;20127;-72
2022/02/11 14:58:04;;;;;;;;;;;;;;;6.00;84.93;100881.83;2847749;83;20136;-75
2022/02/11 15:02:06;;;;;;;;;;;;;;;5.95;84.58;100882.55;2849508;81;20144;-74
2022/02/11 15:06:08;;;;;;;;;;;;;;;5.89;84.38;100894.73;2855589;82;20101;-75
2022/02/11 15:10:09;;;;;;;;;;;;;;;5.88;85.00;100894.34;2855226;83;20120;-75
2022/02/11 15:14:11;;;;;;;;;;;;;;;5.93;85.18;100898.95;2854145;83;20136;-74
2022/02/11 15:18:12;;;;;;;;;;;;;;;5.94;85.17;100909.41;2854808;83;20167;-74
2022/02/11 15:22:14;;;;;;;;;;;;;;;5.84;85.70;100911.67;2854241;83;20355;-74
2022/02/11 15:26:17;;;;;;;;;;;;;;;5.83;86.39;100917.89;2854309;83;20329;-75
2022/02/11 15:30:18;;;;;;;;;;;;;;;5.79;86.84;100915.03;2853819;82;20277;-74
2022/02/11 15:34:19;;;;;;;;;;;;;;;5.78;86.87;100915.09;2922827;80;20118;-72
2022/02/11 15:38:21;;;;;;;;;;;;;;;5.68;86.89;100912.95;2931529;81;20134;-74
2022/02/11 15:42:23;;;;;;;;;;;;;;;5.62;88.00;100925.14;2930913;81;20140;-73
2022/02/11 15:46:24;;;;;;;;;;;;;;;5.50;88.68;100928.39;2930713;81;20423;-74
2022/02/11 15:50:25;;;;;;;;;;;;;;;5.38;88.97;100935.98;2930269;81;20101;-74
2022/02/11 15:54:27;;;;;;;;;;;;;;;5.27;89.52;100943.11;2931352;81;20131;-75
2022/02/11 15:58:28;;;;;;;;;;;;;;;5.11;89.98;100950.05;2931044;81;20123;-73
2022/02/11 16:02:29;;;;;;;;;;;;;;;5.06;90.39;100956.02;2919407;81;20122;-74
2022/02/11 16:06:31;;;;;;;;;;;;;;;5.02;89.84;100957.97;2901268;82;20473;-73
2022/02/11 16:10:32;;;;;;;;;;;;;;;4.99;90.16;100964.69;2900146;82;20139;-73
2022/02/11 16:14:33;;;;;;;;;;;;;;;4.96;90.73;100972.30;2900210;82;20119;-73
2022/02/11 16:18:35;;;;;;;;;;;;;;;4.99;90.00;100976.55;2899770;82;20130;-73
2022/02/11 16:22:36;;;;;;;;;;;;;;;4.98;90.12;100989.34;2899710;82;20150;-73
2022/02/11 16:26:38;;;;;;;;;;;;;;;4.86;90.38;100997.38;2899825;82;20379;-73
2022/02/11 16:30:41;;;;;;;;;;;;;;;4.73;90.61;101000.20;2899702;82;20142;-73
2022/02/11 16:34:42;;;;;;;;;;;;;;;4.65;90.75;101011.09;2883564;82;20121;-73
2022/02/11 16:38:45;;;;;;;;;;;;;;;4.70;91.34;101019.16;2883660;82;20403;-73
2022/02/11 16:42:47;;;;;;;;;;;;;;;4.79;91.70;101024.47;2884530;82;20149;-75
2022/02/11 16:46:49;;;;;;;;;;;;;;;4.91;91.50;101036.71;2886181;82;20113;-75
2022/02/11 16:50:51;;;;;;;;;;;;;;;4.99;91.80;101041.16;2886019;82;20105;-75
2022/02/11 16:54:53;;;;;;;;;;;;;;;5.02;91.29;101038.84;2885497;82;20133;-72
2022/02/11 16:58:54;;;;;;;;;;;;;;;5.13;91.66;101049.77;2885425;82;20157;-71
2022/02/11 17:02:55;;;;;;;;;;;;;;;5.20;90.81;101056.45;2869135;82;20140;-73
2022/02/11 17:06:57;;;;;;;;;;;;;;;5.32;90.83;101056.81;2857552;83;20136;-72
2022/02/11 17:10:58;;;;;;;;;;;;;;;5.37;90.33;101058.77;2857279;83;20143;-71
2022/02/11 17:14:59;;;;;;;;;;;;;;;5.33;90.09;101070.39;2857596;83;20100;-72
2022/02/11 17:19:01;;;;;;;;;;;;;;;5.24;89.99;101069.05;2857219;83;20156;-72
2022/02/11 17:23:02;;;;;;;;;;;;;;;5.24;90.00;101073.84;2857256;83;20132;-74
2022/02/11 17:27:04;;;;;;;;;;;;;;;5.27;89.97;101078.13;2856546;83;20410;-75
2022/02/11 17:31:05;;;;;;;;;;;;;;;5.20;89.37;101088.11;2857101;82;20129;-74
2022/02/11 17:35:07;;;;;;;;;;;;;;;5.18;89.25;101093.92;2857306;82;20124;-74
2022/02/11 17:39:08;;;;;;;;;;;;;;;5.04;89.40;101089.73;2857311;83;20125;-75
2022/02/11 17:43:10;;;;;;;;;;;;;;;4.91;90.79;101109.22;2856906;83;20089;-73
2022/02/11 17:47:12;;;;;;;;;;;;;;;4.88;90.86;101110.67;2855649;83;20370;-74
2022/02/11 17:51:14;;;;;;;;;;;;;;;4.92;91.08;101119.70;2856479;83;20133;-72
2022/02/11 17:55:15;;;;;;;;;;;;;;;4.83;91.24;101124.05;2856499;83;20396;-73
2022/02/11 17:59:17;;;;;;;;;;;;;;;4.79;91.55;101138.30;2857834;83;20176;-73
2022/02/11 18:03:18;;;;;;;;;;;;;;;4.80;91.55;101138.22;2856908;82;20126;-74
2022/02/11 18:07:19;;;;;;;;;;;;;;;4.87;91.62;101142.77;2857350;83;20140;-73
2022/02/11 18:11:20;;;;;;;;;;;;;;;4.99;91.33;101143.99;2857638;83;20147;-75
2022/02/11 18:15:22;;;;;;;;;;;;;;;5.10;91.55;101149.66;2858627;83;20106;-73
2022/02/11 18:19:23;;;;;;;;;;;;;;;5.24;91.46;101147.70;2858740;83;20132;-72
2022/02/11 18:23:24;;;;;;;;;;;;;;;5.27;89.59;101151.52;2858360;83;20175;-72
2022/02/11 18:27:25;;;;;;;;;;;;;;;5.29;90.08;101157.58;2857614;83;20089;-72
2022/02/11 18:31:30;;;;;;;;;;;;;;;5.28;89.56;101162.45;2871245;81;20131;-73
2022/02/11 18:35:30;;;;;;;;;;;;;;;5.39;90.36;101175.64;2927813;77;20130;-70
2022/02/11 18:39:32;;;;;;;;;;;;;;;5.46;89.94;101177.05;2874294;81;20176;-69
2022/02/11 18:43:33;;;;;;;;;;;;;;;5.53;90.54;101181.59;2893815;81;20148;-70
2022/02/11 18:47:36;;;;;;;;;;;;;;;5.58;90.34;101187.05;2906481;80;20145;-70
2022/02/11 18:51:37;;;;;;;;;;;;;;;5.62;90.22;101192.19;2930487;80;20552;-71
2022/02/11 18:55:39;;;;;;;;;;;;;;;5.72;90.34;101200.08;2927518;81;20118;-70
2022/02/11 19:03:55;;;;;;;;;;;;;;;5.65;88.71;101199.95;2927158;81;20716;-70
2022/02/11 19:07:57;;;;;;;;;;;;;;;5.49;87.33;101208.58;2927169;81;20434;-69
2022/02/11 19:11:58;;;;;;;;;;;;;;;5.23;86.41;101225.61;2927146;81;20466;-69
2022/02/11 19:15:59;;;;;;;;;;;;;;;5.02;86.61;101228.27;2927062;81;20111;-70
2022/02/11 19:20:01;;;;;;;;;;;;;;;4.81;86.90;101237.47;2927170;81;20118;-71
2022/02/11 19:24:02;;;;;;;;;;;;;;;4.56;87.72;101244.25;2935204;81;20153;-70
2022/02/11 19:28:04;;;;;;;;;;;;;;;3.92;90.39;101257.72;2935219;81;20085;-70
2022/02/11 19:32:07;;;;;;;;;;;;;;;3.75;91.71;101267.59;2934027;81;20137;-70
2022/02/11 19:36:08;;;;;;;;;;;;;;;3.59;93.03;101270.78;2926698;80;20098;-70
2022/02/11 19:40:11;;;;;;;;;;;;;;;3.54;93.67;101270.98;2893509;82;20083;-71
2022/02/11 19:44:12;;;;;;;;;;;;;;;3.41;93.81;101274.95;2893242;82;20122;-70
2022/02/11 19:48:14;;;;;;;;;;;;;;;3.31;94.07;101273.55;2893434;82;20142;-70
2022/02/11 19:52:16;;;;;;;;;;;;;;;3.26;94.08;101279.84;2893460;82;20130;-70
2022/02/11 19:56:17;;;;;;;;;;;;;;;3.28;93.55;101295.58;2893984;82;20079;-69
2022/02/11 20:00:20;;;;;;;;;;;;;;;3.13;94.21;101310.09;2893609;82;20414;-70
2022/02/11 20:04:21;;;;;;;;;;;;;;;3.14;94.19;101311.81;2893750;82;20423;-70
2022/02/11 20:08:23;;;;;;;;;;;;;;;3.14;95.08;101319.26;2893673;82;20145;-70
2022/02/11 20:12:24;;;;;;;;;;;;;;;3.10;95.24;101326.85;2893634;82;20122;-69
2022/02/11 20:16:25;;;;;;;;;;;;;;;2.97;95.70;101326.41;2893875;82;20104;-70
2022/02/11 20:20:30;;;;;;;;;;;;;;;3.03;95.91;101340.25;2893735;82;20115;-70
2022/02/11 20:24:31;;;;;;;;;;;;;;;2.99;95.66;101344.75;2893190;82;20158;-69
2022/02/11 20:28:33;;;;;;;;;;;;;;;2.95;96.14;101355.84;2893385;82;20158;-70
2022/02/11 20:32:35;;;;;;;;;;;;;;;2.91;96.34;101352.88;2893310;82;20138;-70
2022/02/11 20:36:40;;;;;;;;;;;;;;;2.90;95.88;101347.22;2893318;81;20161;-70
2022/02/11 20:40:40;;;;;;;;;;;;;;;2.94;96.00;101352.77;2893579;82;20115;-70
2022/02/11 20:44:45;;;;;;;;;;;;;;;2.91;96.20;101356.82;2893397;82;20104;-70
2022/02/11 20:48:45;;;;;;;;;;;;;;;2.89;96.24;101373.09;2893375;82;20122;-71
2022/02/11 20:52:46;;;;;;;;;;;;;;;2.95;96.25;101387.38;2860646;82;20108;-69
2022/02/11 20:56:47;;;;;;;;;;;;;;;2.95;96.41;101384.75;2844089;83;20114;-71
2022/02/11 21:00:48;;;;;;;;;;;;;;;2.98;96.16;101409.62;2844411;83;20133;-71
2022/02/11 21:04:50;;;;;;;;;;;;;;;2.93;96.01;101415.45;2843836;83;20211;-71
2022/02/11 21:08:51;;;;;;;;;;;;;;;2.90;96.01;101420.81;2844242;83;20448;-70
2022/02/11 21:12:52;;;;;;;;;;;;;;;2.85;96.22;101430.62;2844527;83;20152;-70
2022/02/11 21:16:54;;;;;;;;;;;;;;;2.77;96.29;101430.01;2843968;83;20120;-71
2022/02/11 21:20:55;;;;;;;;;;;;;;;2.77;96.08;101440.05;2844207;82;20137;-70
2022/02/11 21:24:56;;;;;;;;;;;;;;;2.75;96.29;101443.18;2844232;83;20197;-68
2022/02/11 21:28:58;;;;;;;;;;;;;;;2.79;96.37;101448.74;2843640;83;20132;-67
2022/02/11 21:32:59;;;;;;;;;;;;;;;2.92;96.38;101457.58;2843564;83;20180;-71
2022/02/11 21:37:01;;;;;;;;;;;;;;;3.04;96.05;101458.48;2843220;83;20152;-70
2022/02/11 21:41:04;;;;;;;;;;;;;;;3.17;96.05;101470.81;2842731;83;20132;-70
2022/02/11 21:45:08;;;;;;;;;;;;;;;3.31;95.70;101478.70;2843372;83;20093;-70
2022/02/11 21:49:10;;;;;;;;;;;;;;;3.28;95.53;101483.14;2843551;83;20457;-70
2022/02/11 21:53:13;;;;;;;;;;;;;;;3.35;95.42;101490.86;2901463;81;20397;-70
2022/02/11 21:57:14;;;;;;;;;;;;;;;3.44;95.62;101498.44;2918335;81;20151;-70
2022/02/11 22:01:16;;;;;;;;;;;;;;;3.50;95.77;101493.44;2918740;81;20227;-69
2022/02/11 22:05:17;;;;;;;;;;;;;;;3.57;95.66;101499.77;2917624;81;20124;-68
2022/02/11 22:09:19;;;;;;;;;;;;;;;3.66;95.27;101518.78;2918653;81;20115;-68
2022/02/11 22:13:20;;;;;;;;;;;;;;;3.65;94.96;101527.59;2918986;81;20151;-69
2022/02/11 22:17:22;;;;;;;;;;;;;;;3.73;94.88;101520.28;2919192;80;20215;-69
2022/02/11 22:21:23;;;;;;;;;;;;;;;3.66;94.69;101527.99;2919370;81;20097;-69
2022/02/11 22:25:24;;;;;;;;;;;;;;;3.60;94.71;101536.09;2919351;81;20131;-67
2022/02/11 22:29:26;;;;;;;;;;;;;;;3.52;94.87;101549.02;2919556;81;20132;-69
2022/02/11 22:33:30;;;;;;;;;;;;;;;3.56;95.20;101546.73;2919504;81;20069;-68
2022/02/11 22:37:31;;;;;;;;;;;;;;;3.54;95.10;101562.14;2902627;80;20112;-68
2022/02/11 22:41:32;;;;;;;;;;;;;;;3.59;95.53;101567.27;2951202;80;20140;-69
2022/02/11 22:45:34;;;;;;;;;;;;;;;3.68;95.53;101569.16;2952079;80;20116;-69
2022/02/11 22:53:51;;;;;;;;;;;;;;;3.91;95.13;101587.27;2951562;80;20127;-69
2022/02/11 22:57:52;;;;;;;;;;;;;;;3.93;94.52;101589.40;2911284;80;20134;-68
2022/02/11 23:01:53;;;;;;;;;;;;;;;3.95;94.47;101595.47;2896612;81;20119;-68
2022/02/11 23:06:01;;;;;;;;;;;;;;;3.96;94.17;101605.56;2898729;81;20842;-69
2022/02/11 23:10:01;;;;;;;;;;;;;;;3.94;94.21;101604.28;2893433;81;20445;-68
2022/02/11 23:14:04;;;;;;;;;;;;;;;3.97;94.01;101615.18;2895045;81;20459;-68
2022/02/11 23:18:05;;;;;;;;;;;;;;;4.01;93.87;101624.69;2902394;81;20130;-69
2022/02/11 23:22:06;;;;;;;;;;;;;;;3.96;93.43;101630.57;2883021;81;20477;-69
2022/02/11 23:26:09;;;;;;;;;;;;;;;4.07;93.33;101642.91;2919986;81;20418;-69
2022/02/11 23:30:11;;;;;;;;;;;;;;;3.96;93.23;101639.31;2902686;81;20153;-68
2022/02/11 23:34:12;;;;;;;;;;;;;;;4.04;93.10;101645.66;2895190;81;20148;-69
2022/02/11 23:38:14;;;;;;;;;;;;;;;4.00;92.57;101653.25;2890977;81;20157;-68
2022/02/11 23:42:16;;;;;;;;;;;;;;;4.03;92.13;101662.80;2899237;81;20106;-68
2022/02/11 23:46:17;;;;;;;;;;;;;;;3.88;92.00;101673.38;2881808;81;20376;-69
2022/02/11 23:50:28;;;;;;;;;;;;;;;3.99;92.00;101669.96;2903163;81;20439;-68
2022/02/11 23:54:41;;;;;;;;;;;;;;;4.00;91.75;101666.42;2903243;81;20130;-68
2022/02/11 23:58:51;;;;;;;;;;;;;;;3.94;90.81;101677.16;2924839;81;20478;-68
